sensor_id;sensor_type;location;lat;lon;timestamp;P1;durP1;ratioP1;P2;durP2;ratioP2
39772;SDS011;25451;51.960;6.250;2023-08-08T00:02:12;5.53;;;2.80;;
39772;SDS011;25451;51.960;6.250;2023-08-08T00:04:38;4.47;;;2.37;;
39772;SDS011;25451;51.960;6.250;2023-08-08T00:07:03;4.70;;;2.93;;
39772;SDS011;25451;51.960;6.250;2023-08-08T00:09:29;4.83;;;2.70;;
39772;SDS011;25451;51.960;6.250;2023-08-08T00:11:54;4.77;;;2.47;;
39772;SDS011;25451;51.960;6.250;2023-08-08T00:14:19;4.77;;;2.50;;
39772;SDS011;25451;51.960;6.250;2023-08-08T00:16:45;5.35;;;2.90;;
39772;SDS011;25451;51.960;6.250;2023-08-08T00:19:10;5.40;;;2.70;;
39772;SDS011;25451;51.960;6.250;2023-08-08T00:21:35;5.67;;;2.20;;
39772;SDS011;25451;51.960;6.250;2023-08-08T00:24:01;4.40;;;2.77;;
39772;SDS011;25451;51.960;6.250;2023-08-08T00:26:26;5.03;;;2.63;;
39772;SDS011;25451;51.960;6.250;2023-08-08T00:28:51;6.20;;;2.63;;
39772;SDS011;25451;51.960;6.250;2023-08-08T00:31:18;7.23;;;2.80;;
39772;SDS011;25451;51.960;6.250;2023-08-08T00:33:44;5.97;;;2.65;;
39772;SDS011;25451;51.960;6.250;2023-08-08T00:36:10;7.97;;;2.77;;
39772;SDS011;25451;51.960;6.250;2023-08-08T00:38:35;5.37;;;2.80;;
39772;SDS011;25451;51.960;6.250;2023-08-08T00:41:00;4.67;;;2.80;;
39772;SDS011;25451;51.960;6.250;2023-08-08T00:43:26;5.82;;;2.70;;
39772;SDS011;25451;51.960;6.250;2023-08-08T00:45:51;5.65;;;2.45;;
39772;SDS011;25451;51.960;6.250;2023-08-08T00:48:17;4.77;;;2.60;;
39772;SDS011;25451;51.960;6.250;2023-08-08T00:50:44;5.53;;;3.05;;
39772;SDS011;25451;51.960;6.250;2023-08-08T00:53:10;6.63;;;2.90;;
39772;SDS011;25451;51.960;6.250;2023-08-08T00:55:36;6.65;;;2.83;;
39772;SDS011;25451;51.960;6.250;2023-08-08T00:58:02;6.57;;;3.07;;
39772;SDS011;25451;51.960;6.250;2023-08-08T01:00:27;4.97;;;2.77;;
39772;SDS011;25451;51.960;6.250;2023-08-08T01:02:53;5.13;;;2.65;;
39772;SDS011;25451;51.960;6.250;2023-08-08T01:05:18;6.65;;;2.92;;
39772;SDS011;25451;51.960;6.250;2023-08-08T01:07:57;6.80;;;2.90;;
39772;SDS011;25451;51.960;6.250;2023-08-08T01:10:33;6.25;;;3.13;;
39772;SDS011;25451;51.960;6.250;2023-08-08T01:13:18;6.93;;;2.60;;
39772;SDS011;25451;51.960;6.250;2023-08-08T01:15:48;4.97;;;2.60;;
39772;SDS011;25451;51.960;6.250;2023-08-08T01:18:15;5.45;;;2.70;;
39772;SDS011;25451;51.960;6.250;2023-08-08T01:20:42;6.75;;;3.00;;
39772;SDS011;25451;51.960;6.250;2023-08-08T01:23:20;6.22;;;2.70;;
39772;SDS011;25451;51.960;6.250;2023-08-08T01:25:51;5.07;;;2.67;;
39772;SDS011;25451;51.960;6.250;2023-08-08T01:28:20;6.82;;;2.90;;
39772;SDS011;25451;51.960;6.250;2023-08-08T01:30:46;6.47;;;2.70;;
39772;SDS011;25451;51.960;6.250;2023-08-08T01:33:11;5.40;;;2.60;;
39772;SDS011;25451;51.960;6.250;2023-08-08T01:35:38;4.27;;;2.57;;
39772;SDS011;25451;51.960;6.250;2023-08-08T01:38:29;5.25;;;2.85;;
39772;SDS011;25451;51.960;6.250;2023-08-08T01:40:54;7.80;;;3.10;;
39772;SDS011;25451;51.960;6.250;2023-08-08T01:43:22;5.13;;;2.78;;
39772;SDS011;25451;51.960;6.250;2023-08-08T01:45:48;4.68;;;2.75;;
39772;SDS011;25451;51.960;6.250;2023-08-08T01:48:15;5.45;;;2.67;;
39772;SDS011;25451;51.960;6.250;2023-08-08T01:50:41;5.93;;;2.70;;
39772;SDS011;25451;51.960;6.250;2023-08-08T01:53:06;5.90;;;2.80;;
39772;SDS011;25451;51.960;6.250;2023-08-08T01:55:32;6.90;;;2.90;;
39772;SDS011;25451;51.960;6.250;2023-08-08T01:57:57;5.22;;;2.53;;
39772;SDS011;25451;51.960;6.250;2023-08-08T02:00:22;4.73;;;2.50;;
39772;SDS011;25451;51.960;6.250;2023-08-08T02:02:48;7.93;;;2.80;;
39772;SDS011;25451;51.960;6.250;2023-08-08T02:05:13;7.73;;;2.60;;
39772;SDS011;25451;51.960;6.250;2023-08-08T02:07:39;8.67;;;3.00;;
39772;SDS011;25451;51.960;6.250;2023-08-08T02:10:04;4.80;;;2.60;;
39772;SDS011;25451;51.960;6.250;2023-08-08T02:12:30;5.87;;;2.77;;
39772;SDS011;25451;51.960;6.250;2023-08-08T02:14:58;5.90;;;2.47;;
39772;SDS011;25451;51.960;6.250;2023-08-08T02:17:24;6.05;;;2.60;;
39772;SDS011;25451;51.960;6.250;2023-08-08T02:19:50;6.60;;;2.70;;
39772;SDS011;25451;51.960;6.250;2023-08-08T02:22:16;8.57;;;2.70;;
39772;SDS011;25451;51.960;6.250;2023-08-08T02:24:41;4.75;;;2.50;;
39772;SDS011;25451;51.960;6.250;2023-08-08T02:27:07;6.18;;;2.50;;
39772;SDS011;25451;51.960;6.250;2023-08-08T02:29:32;6.13;;;2.30;;
39772;SDS011;25451;51.960;6.250;2023-08-08T02:31:58;5.30;;;2.50;;
39772;SDS011;25451;51.960;6.250;2023-08-08T02:34:23;6.67;;;2.40;;
39772;SDS011;25451;51.960;6.250;2023-08-08T02:36:48;4.37;;;2.53;;
39772;SDS011;25451;51.960;6.250;2023-08-08T02:39:14;6.68;;;2.35;;
39772;SDS011;25451;51.960;6.250;2023-08-08T02:41:39;7.38;;;2.28;;
39772;SDS011;25451;51.960;6.250;2023-08-08T02:44:06;8.13;;;2.67;;
39772;SDS011;25451;51.960;6.250;2023-08-08T02:46:32;6.53;;;2.65;;
39772;SDS011;25451;51.960;6.250;2023-08-08T02:48:57;5.70;;;2.20;;
39772;SDS011;25451;51.960;6.250;2023-08-08T02:51:22;6.97;;;2.40;;
39772;SDS011;25451;51.960;6.250;2023-08-08T02:53:48;4.83;;;2.33;;
39772;SDS011;25451;51.960;6.250;2023-08-08T02:56:13;7.33;;;2.47;;
39772;SDS011;25451;51.960;6.250;2023-08-08T02:58:38;5.00;;;2.43;;
39772;SDS011;25451;51.960;6.250;2023-08-08T03:01:03;5.47;;;2.40;;
39772;SDS011;25451;51.960;6.250;2023-08-08T03:03:29;4.60;;;2.57;;
39772;SDS011;25451;51.960;6.250;2023-08-08T03:05:54;5.60;;;2.50;;
39772;SDS011;25451;51.960;6.250;2023-08-08T03:08:19;5.53;;;2.15;;
39772;SDS011;25451;51.960;6.250;2023-08-08T03:10:45;4.93;;;2.55;;
39772;SDS011;25451;51.960;6.250;2023-08-08T03:13:10;3.87;;;2.27;;
39772;SDS011;25451;51.960;6.250;2023-08-08T03:15:35;6.27;;;2.17;;
39772;SDS011;25451;51.960;6.250;2023-08-08T03:18:01;6.50;;;2.33;;
39772;SDS011;25451;51.960;6.250;2023-08-08T03:20:27;6.88;;;2.40;;
39772;SDS011;25451;51.960;6.250;2023-08-08T03:22:52;9.27;;;2.93;;
39772;SDS011;25451;51.960;6.250;2023-08-08T03:25:17;5.77;;;2.57;;
39772;SDS011;25451;51.960;6.250;2023-08-08T03:27:43;5.97;;;2.27;;
39772;SDS011;25451;51.960;6.250;2023-08-08T03:30:08;6.47;;;2.23;;
39772;SDS011;25451;51.960;6.250;2023-08-08T03:32:34;5.25;;;2.30;;
39772;SDS011;25451;51.960;6.250;2023-08-08T03:34:59;5.60;;;2.30;;
39772;SDS011;25451;51.960;6.250;2023-08-08T03:37:24;7.67;;;2.10;;
39772;SDS011;25451;51.960;6.250;2023-08-08T03:39:50;7.23;;;2.50;;
39772;SDS011;25451;51.960;6.250;2023-08-08T03:42:15;6.70;;;2.30;;
39772;SDS011;25451;51.960;6.250;2023-08-08T03:44:40;4.13;;;2.15;;
39772;SDS011;25451;51.960;6.250;2023-08-08T03:47:06;6.27;;;2.20;;
39772;SDS011;25451;51.960;6.250;2023-08-08T03:49:32;7.43;;;2.08;;
39772;SDS011;25451;51.960;6.250;2023-08-08T03:51:57;3.93;;;2.07;;
39772;SDS011;25451;51.960;6.250;2023-08-08T03:54:23;5.50;;;2.23;;
39772;SDS011;25451;51.960;6.250;2023-08-08T03:56:48;6.37;;;2.20;;
39772;SDS011;25451;51.960;6.250;2023-08-08T03:59:13;4.47;;;2.03;;
39772;SDS011;25451;51.960;6.250;2023-08-08T04:01:39;4.10;;;1.90;;
39772;SDS011;25451;51.960;6.250;2023-08-08T04:04:04;5.40;;;2.20;;
39772;SDS011;25451;51.960;6.250;2023-08-08T04:06:30;5.60;;;2.45;;
39772;SDS011;25451;51.960;6.250;2023-08-08T04:08:55;6.27;;;2.33;;
39772;SDS011;25451;51.960;6.250;2023-08-08T04:11:21;5.23;;;2.27;;
39772;SDS011;25451;51.960;6.250;2023-08-08T04:13:46;5.27;;;2.37;;
39772;SDS011;25451;51.960;6.250;2023-08-08T04:16:11;5.63;;;2.40;;
39772;SDS011;25451;51.960;6.250;2023-08-08T04:18:37;5.35;;;2.30;;
39772;SDS011;25451;51.960;6.250;2023-08-08T04:21:02;4.88;;;2.20;;
39772;SDS011;25451;51.960;6.250;2023-08-08T04:23:27;5.47;;;2.30;;
39772;SDS011;25451;51.960;6.250;2023-08-08T04:25:53;8.27;;;3.50;;
39772;SDS011;25451;51.960;6.250;2023-08-08T04:28:18;7.13;;;3.00;;
39772;SDS011;25451;51.960;6.250;2023-08-08T04:30:44;5.55;;;2.50;;
39772;SDS011;25451;51.960;6.250;2023-08-08T04:33:09;7.53;;;3.00;;
39772;SDS011;25451;51.960;6.250;2023-08-08T04:35:35;8.00;;;3.10;;
39772;SDS011;25451;51.960;6.250;2023-08-08T04:38:00;8.40;;;3.30;;
39772;SDS011;25451;51.960;6.250;2023-08-08T04:40:25;7.47;;;3.17;;
39772;SDS011;25451;51.960;6.250;2023-08-08T04:42:51;9.33;;;3.00;;
39772;SDS011;25451;51.960;6.250;2023-08-08T04:45:16;6.13;;;3.30;;
39772;SDS011;25451;51.960;6.250;2023-08-08T04:47:42;6.67;;;3.33;;
39772;SDS011;25451;51.960;6.250;2023-08-08T04:50:07;9.27;;;3.80;;
39772;SDS011;25451;51.960;6.250;2023-08-08T04:52:33;9.57;;;3.70;;
39772;SDS011;25451;51.960;6.250;2023-08-08T04:54:58;8.47;;;3.53;;
39772;SDS011;25451;51.960;6.250;2023-08-08T04:57:23;6.30;;;3.60;;
39772;SDS011;25451;51.960;6.250;2023-08-08T04:59:49;10.17;;;3.67;;
39772;SDS011;25451;51.960;6.250;2023-08-08T05:02:14;11.03;;;3.93;;
39772;SDS011;25451;51.960;6.250;2023-08-08T05:04:39;9.60;;;4.13;;
39772;SDS011;25451;51.960;6.250;2023-08-08T05:07:05;8.53;;;4.00;;
39772;SDS011;25451;51.960;6.250;2023-08-08T05:09:31;8.75;;;3.90;;
39772;SDS011;25451;51.960;6.250;2023-08-08T05:11:56;8.70;;;4.20;;
39772;SDS011;25451;51.960;6.250;2023-08-08T05:14:22;9.53;;;3.90;;
39772;SDS011;25451;51.960;6.250;2023-08-08T05:16:47;10.17;;;3.43;;
39772;SDS011;25451;51.960;6.250;2023-08-08T05:19:12;9.63;;;3.73;;
39772;SDS011;25451;51.960;6.250;2023-08-08T05:21:38;11.73;;;4.30;;
39772;SDS011;25451;51.960;6.250;2023-08-08T05:24:03;8.17;;;4.00;;
39772;SDS011;25451;51.960;6.250;2023-08-08T05:26:29;13.70;;;3.83;;
39772;SDS011;25451;51.960;6.250;2023-08-08T05:28:54;7.57;;;3.63;;
39772;SDS011;25451;51.960;6.250;2023-08-08T05:31:19;10.20;;;4.13;;
39772;SDS011;25451;51.960;6.250;2023-08-08T05:33:45;8.80;;;3.83;;
39772;SDS011;25451;51.960;6.250;2023-08-08T05:36:10;8.17;;;3.70;;
39772;SDS011;25451;51.960;6.250;2023-08-08T05:38:36;6.78;;;3.55;;
39772;SDS011;25451;51.960;6.250;2023-08-08T05:41:01;11.23;;;4.32;;
39772;SDS011;25451;51.960;6.250;2023-08-08T05:43:27;10.23;;;4.37;;
39772;SDS011;25451;51.960;6.250;2023-08-08T05:45:52;10.90;;;4.50;;
39772;SDS011;25451;51.960;6.250;2023-08-08T05:48:18;8.13;;;4.03;;
39772;SDS011;25451;51.960;6.250;2023-08-08T05:50:43;9.77;;;4.10;;
39772;SDS011;25451;51.960;6.250;2023-08-08T05:53:08;9.23;;;4.07;;
39772;SDS011;25451;51.960;6.250;2023-08-08T05:55:34;9.13;;;4.07;;
39772;SDS011;25451;51.960;6.250;2023-08-08T05:57:59;11.25;;;4.20;;
39772;SDS011;25451;51.960;6.250;2023-08-08T06:00:25;9.25;;;4.57;;
39772;SDS011;25451;51.960;6.250;2023-08-08T06:02:50;10.00;;;4.40;;
39772;SDS011;25451;51.960;6.250;2023-08-08T06:05:20;9.63;;;4.40;;
39772;SDS011;25451;51.960;6.250;2023-08-08T06:07:47;10.07;;;4.10;;
39772;SDS011;25451;51.960;6.250;2023-08-08T06:10:12;13.27;;;4.83;;
39772;SDS011;25451;51.960;6.250;2023-08-08T06:12:37;10.57;;;4.50;;
39772;SDS011;25451;51.960;6.250;2023-08-08T06:15:03;10.67;;;4.77;;
39772;SDS011;25451;51.960;6.250;2023-08-08T06:17:31;9.43;;;5.07;;
39772;SDS011;25451;51.960;6.250;2023-08-08T06:19:56;11.07;;;4.73;;
39772;SDS011;25451;51.960;6.250;2023-08-08T06:22:22;12.95;;;4.85;;
39772;SDS011;25451;51.960;6.250;2023-08-08T06:24:48;10.98;;;4.85;;
39772;SDS011;25451;51.960;6.250;2023-08-08T06:27:13;11.90;;;5.00;;
39772;SDS011;25451;51.960;6.250;2023-08-08T06:29:39;11.75;;;4.93;;
39772;SDS011;25451;51.960;6.250;2023-08-08T06:32:04;10.95;;;4.78;;
39772;SDS011;25451;51.960;6.250;2023-08-08T06:34:29;12.10;;;4.53;;
39772;SDS011;25451;51.960;6.250;2023-08-08T06:36:55;12.07;;;5.33;;
39772;SDS011;25451;51.960;6.250;2023-08-08T06:39:20;10.50;;;4.57;;
39772;SDS011;25451;51.960;6.250;2023-08-08T06:41:46;11.82;;;4.78;;
39772;SDS011;25451;51.960;6.250;2023-08-08T06:44:12;9.67;;;4.90;;
39772;SDS011;25451;51.960;6.250;2023-08-08T06:46:37;9.73;;;4.23;;
39772;SDS011;25451;51.960;6.250;2023-08-08T06:49:03;13.02;;;4.20;;
39772;SDS011;25451;51.960;6.250;2023-08-08T06:51:29;11.10;;;4.50;;
39772;SDS011;25451;51.960;6.250;2023-08-08T06:53:55;13.68;;;4.10;;
39772;SDS011;25451;51.960;6.250;2023-08-08T06:56:21;11.10;;;4.00;;
39772;SDS011;25451;51.960;6.250;2023-08-08T06:58:46;11.03;;;4.03;;
39772;SDS011;25451;51.960;6.250;2023-08-08T07:01:11;8.23;;;3.43;;
39772;SDS011;25451;51.960;6.250;2023-08-08T07:03:38;10.05;;;3.70;;
39772;SDS011;25451;51.960;6.250;2023-08-08T07:06:03;9.80;;;3.60;;
39772;SDS011;25451;51.960;6.250;2023-08-08T07:08:29;12.90;;;3.60;;
39772;SDS011;25451;51.960;6.250;2023-08-08T07:10:54;10.90;;;3.47;;
39772;SDS011;25451;51.960;6.250;2023-08-08T07:13:21;9.80;;;3.40;;
39772;SDS011;25451;51.960;6.250;2023-08-08T07:15:47;8.47;;;3.43;;
39772;SDS011;25451;51.960;6.250;2023-08-08T07:18:12;7.87;;;2.97;;
39772;SDS011;25451;51.960;6.250;2023-08-08T07:20:37;7.63;;;2.63;;
39772;SDS011;25451;51.960;6.250;2023-08-08T07:23:04;6.70;;;2.30;;
39772;SDS011;25451;51.960;6.250;2023-08-08T07:25:29;6.20;;;2.35;;
39772;SDS011;25451;51.960;6.250;2023-08-08T07:27:55;6.90;;;2.10;;
39772;SDS011;25451;51.960;6.250;2023-08-08T07:30:20;10.23;;;2.53;;
39772;SDS011;25451;51.960;6.250;2023-08-08T07:32:46;5.53;;;2.07;;
39772;SDS011;25451;51.960;6.250;2023-08-08T07:35:11;6.87;;;2.00;;
39772;SDS011;25451;51.960;6.250;2023-08-08T07:37:37;7.85;;;2.50;;
39772;SDS011;25451;51.960;6.250;2023-08-08T07:40:02;5.13;;;1.83;;
39772;SDS011;25451;51.960;6.250;2023-08-08T07:42:29;4.32;;;1.83;;
39772;SDS011;25451;51.960;6.250;2023-08-08T07:44:54;9.87;;;1.93;;
39772;SDS011;25451;51.960;6.250;2023-08-08T07:47:20;7.53;;;1.88;;
39772;SDS011;25451;51.960;6.250;2023-08-08T07:49:45;6.88;;;2.00;;
39772;SDS011;25451;51.960;6.250;2023-08-08T07:52:11;8.80;;;2.10;;
39772;SDS011;25451;51.960;6.250;2023-08-08T07:54:36;5.80;;;1.80;;
39772;SDS011;25451;51.960;6.250;2023-08-08T07:57:01;5.15;;;1.88;;
39772;SDS011;25451;51.960;6.250;2023-08-08T07:59:27;7.22;;;2.53;;
39772;SDS011;25451;51.960;6.250;2023-08-08T08:01:52;7.00;;;1.80;;
39772;SDS011;25451;51.960;6.250;2023-08-08T08:04:17;5.73;;;1.40;;
39772;SDS011;25451;51.960;6.250;2023-08-08T09:03:58;4.57;;;0.73;;
39772;SDS011;25451;51.960;6.250;2023-08-08T09:06:24;3.50;;;0.80;;
39772;SDS011;25451;51.960;6.250;2023-08-08T09:08:51;4.28;;;0.80;;
39772;SDS011;25451;51.960;6.250;2023-08-08T09:11:17;2.97;;;0.80;;
39772;SDS011;25451;51.960;6.250;2023-08-08T09:13:42;1.83;;;0.70;;
39772;SDS011;25451;51.960;6.250;2023-08-08T09:16:08;1.45;;;0.60;;
39772;SDS011;25451;51.960;6.250;2023-08-08T09:18:34;2.97;;;0.77;;
39772;SDS011;25451;51.960;6.250;2023-08-08T09:21:03;5.32;;;0.80;;
39772;SDS011;25451;51.960;6.250;2023-08-08T09:23:29;2.97;;;0.77;;
39772;SDS011;25451;51.960;6.250;2023-08-08T09:25:54;1.43;;;0.60;;
39772;SDS011;25451;51.960;6.250;2023-08-08T09:28:19;3.13;;;0.67;;
39772;SDS011;25451;51.960;6.250;2023-08-08T09:30:45;3.23;;;0.60;;
39772;SDS011;25451;51.960;6.250;2023-08-08T09:33:11;1.27;;;0.50;;
39772;SDS011;25451;51.960;6.250;2023-08-08T09:35:39;1.93;;;0.70;;
39772;SDS011;25451;51.960;6.250;2023-08-08T09:38:05;1.85;;;0.60;;
39772;SDS011;25451;51.960;6.250;2023-08-08T09:40:30;2.03;;;0.70;;
39772;SDS011;25451;51.960;6.250;2023-08-08T09:42:57;2.67;;;0.70;;
39772;SDS011;25451;51.960;6.250;2023-08-08T09:45:23;2.92;;;0.70;;
39772;SDS011;25451;51.960;6.250;2023-08-08T09:47:49;4.27;;;0.83;;
39772;SDS011;25451;51.960;6.250;2023-08-08T09:50:17;2.15;;;0.60;;
39772;SDS011;25451;51.960;6.250;2023-08-08T09:52:43;1.98;;;0.60;;
39772;SDS011;25451;51.960;6.250;2023-08-08T09:55:09;1.85;;;0.70;;
39772;SDS011;25451;51.960;6.250;2023-08-08T09:57:37;2.60;;;0.60;;
39772;SDS011;25451;51.960;6.250;2023-08-08T10:00:04;1.80;;;0.60;;
39772;SDS011;25451;51.960;6.250;2023-08-08T10:02:35;2.47;;;0.60;;
39772;SDS011;25451;51.960;6.250;2023-08-08T10:05:01;3.90;;;0.60;;
39772;SDS011;25451;51.960;6.250;2023-08-08T10:07:29;1.50;;;0.60;;
39772;SDS011;25451;51.960;6.250;2023-08-08T10:09:55;1.85;;;0.50;;
39772;SDS011;25451;51.960;6.250;2023-08-08T10:12:21;3.20;;;0.70;;
39772;SDS011;25451;51.960;6.250;2023-08-08T10:14:48;7.72;;;0.95;;
39772;SDS011;25451;51.960;6.250;2023-08-08T10:17:14;3.42;;;0.70;;
39772;SDS011;25451;51.960;6.250;2023-08-08T10:19:48;1.85;;;0.70;;
39772;SDS011;25451;51.960;6.250;2023-08-08T10:22:15;1.60;;;0.60;;
39772;SDS011;25451;51.960;6.250;2023-08-08T10:24:47;2.60;;;0.70;;
39772;SDS011;25451;51.960;6.250;2023-08-08T10:27:13;3.30;;;0.77;;
39772;SDS011;25451;51.960;6.250;2023-08-08T10:29:40;1.33;;;0.70;;
39772;SDS011;25451;51.960;6.250;2023-08-08T10:32:06;1.70;;;0.80;;
39772;SDS011;25451;51.960;6.250;2023-08-08T10:34:42;2.50;;;0.70;;
39772;SDS011;25451;51.960;6.250;2023-08-08T10:37:09;3.65;;;0.77;;
39772;SDS011;25451;51.960;6.250;2023-08-08T10:39:55;2.50;;;0.70;;
39772;SDS011;25451;51.960;6.250;2023-08-08T10:42:24;1.33;;;0.70;;
39772;SDS011;25451;51.960;6.250;2023-08-08T10:45:00;1.60;;;0.80;;
39772;SDS011;25451;51.960;6.250;2023-08-08T10:47:35;4.70;;;0.80;;
39772;SDS011;25451;51.960;6.250;2023-08-08T10:50:06;2.25;;;0.73;;
39772;SDS011;25451;51.960;6.250;2023-08-08T10:52:32;3.10;;;0.70;;
39772;SDS011;25451;51.960;6.250;2023-08-08T10:55:02;2.22;;;0.80;;
39772;SDS011;25451;51.960;6.250;2023-08-08T10:57:28;2.30;;;0.80;;
39772;SDS011;25451;51.960;6.250;2023-08-08T10:59:53;1.57;;;0.70;;
39772;SDS011;25451;51.960;6.250;2023-08-08T11:02:19;2.65;;;0.75;;
39772;SDS011;25451;51.960;6.250;2023-08-08T11:04:46;2.13;;;0.77;;
39772;SDS011;25451;51.960;6.250;2023-08-08T11:07:13;4.20;;;0.90;;
39772;SDS011;25451;51.960;6.250;2023-08-08T11:09:39;2.55;;;0.80;;
39772;SDS011;25451;51.960;6.250;2023-08-08T11:12:04;2.53;;;0.80;;
39772;SDS011;25451;51.960;6.250;2023-08-08T11:14:30;2.05;;;0.65;;
39772;SDS011;25451;51.960;6.250;2023-08-08T11:16:55;1.83;;;0.80;;
39772;SDS011;25451;51.960;6.250;2023-08-08T11:19:20;2.97;;;0.70;;
39772;SDS011;25451;51.960;6.250;2023-08-08T11:21:48;3.63;;;0.75;;
39772;SDS011;25451;51.960;6.250;2023-08-08T11:24:14;2.80;;;0.80;;
39772;SDS011;25451;51.960;6.250;2023-08-08T11:26:40;1.65;;;0.90;;
39772;SDS011;25451;51.960;6.250;2023-08-08T11:29:06;3.45;;;0.90;;
39772;SDS011;25451;51.960;6.250;2023-08-08T11:31:33;2.87;;;1.03;;
39772;SDS011;25451;51.960;6.250;2023-08-08T11:33:59;6.07;;;0.98;;
39772;SDS011;25451;51.960;6.250;2023-08-08T11:36:34;3.45;;;0.80;;
39772;SDS011;25451;51.960;6.250;2023-08-08T11:39:01;2.27;;;0.80;;
39772;SDS011;25451;51.960;6.250;2023-08-08T11:41:33;2.58;;;0.80;;
39772;SDS011;25451;51.960;6.250;2023-08-08T11:43:59;1.10;;;0.80;;
39772;SDS011;25451;51.960;6.250;2023-08-08T11:46:27;1.77;;;0.90;;
39772;SDS011;25451;51.960;6.250;2023-08-08T11:48:52;2.57;;;1.00;;
39772;SDS011;25451;51.960;6.250;2023-08-08T11:51:17;2.73;;;1.00;;
39772;SDS011;25451;51.960;6.250;2023-08-08T11:53:52;3.33;;;1.20;;
39772;SDS011;25451;51.960;6.250;2023-08-08T11:56:19;1.92;;;0.70;;
39772;SDS011;25451;51.960;6.250;2023-08-08T11:58:45;1.58;;;0.60;;
39772;SDS011;25451;51.960;6.250;2023-08-08T12:01:11;1.23;;;0.70;;
39772;SDS011;25451;51.960;6.250;2023-08-08T12:03:39;3.03;;;0.82;;
39772;SDS011;25451;51.960;6.250;2023-08-08T12:06:14;1.63;;;0.80;;
39772;SDS011;25451;51.960;6.250;2023-08-08T12:08:41;2.08;;;0.80;;
39772;SDS011;25451;51.960;6.250;2023-08-08T12:11:08;1.73;;;0.80;;
39772;SDS011;25451;51.960;6.250;2023-08-08T12:13:34;1.45;;;0.80;;
39772;SDS011;25451;51.960;6.250;2023-08-08T12:16:03;1.92;;;0.82;;
39772;SDS011;25451;51.960;6.250;2023-08-08T12:18:29;1.60;;;0.70;;
39772;SDS011;25451;51.960;6.250;2023-08-08T12:20:55;2.00;;;0.90;;
39772;SDS011;25451;51.960;6.250;2023-08-08T12:23:20;1.47;;;0.80;;
39772;SDS011;25451;51.960;6.250;2023-08-08T12:25:46;1.50;;;0.90;;
39772;SDS011;25451;51.960;6.250;2023-08-08T12:28:11;2.65;;;0.82;;
39772;SDS011;25451;51.960;6.250;2023-08-08T12:30:36;2.80;;;1.00;;
39772;SDS011;25451;51.960;6.250;2023-08-08T12:33:02;2.73;;;0.80;;
39772;SDS011;25451;51.960;6.250;2023-08-08T12:35:27;3.20;;;0.93;;
39772;SDS011;25451;51.960;6.250;2023-08-08T12:37:53;2.27;;;0.90;;
39772;SDS011;25451;51.960;6.250;2023-08-08T12:40:18;2.87;;;0.93;;
39772;SDS011;25451;51.960;6.250;2023-08-08T12:42:43;1.83;;;1.02;;
39772;SDS011;25451;51.960;6.250;2023-08-08T12:45:09;2.53;;;1.00;;
39772;SDS011;25451;51.960;6.250;2023-08-08T12:47:35;3.13;;;1.00;;
39772;SDS011;25451;51.960;6.250;2023-08-08T12:50:03;3.03;;;1.00;;
39772;SDS011;25451;51.960;6.250;2023-08-08T12:52:29;1.85;;;0.95;;
39772;SDS011;25451;51.960;6.250;2023-08-08T12:54:54;2.37;;;1.17;;
39772;SDS011;25451;51.960;6.250;2023-08-08T12:57:20;1.67;;;1.00;;
39772;SDS011;25451;51.960;6.250;2023-08-08T12:59:45;2.10;;;0.90;;
39772;SDS011;25451;51.960;6.250;2023-08-08T13:02:10;1.73;;;1.03;;
39772;SDS011;25451;51.960;6.250;2023-08-08T13:04:36;2.93;;;1.00;;
39772;SDS011;25451;51.960;6.250;2023-08-08T13:07:01;2.73;;;1.30;;
39772;SDS011;25451;51.960;6.250;2023-08-08T13:09:26;3.10;;;1.10;;
39772;SDS011;25451;51.960;6.250;2023-08-08T13:11:52;2.77;;;1.10;;
39772;SDS011;25451;51.960;6.250;2023-08-08T13:14:17;1.53;;;1.07;;
39772;SDS011;25451;51.960;6.250;2023-08-08T13:16:42;1.80;;;1.10;;
39772;SDS011;25451;51.960;6.250;2023-08-08T13:19:08;3.23;;;1.10;;
39772;SDS011;25451;51.960;6.250;2023-08-08T13:21:33;1.70;;;1.20;;
39772;SDS011;25451;51.960;6.250;2023-08-08T13:23:59;2.37;;;1.00;;
39772;SDS011;25451;51.960;6.250;2023-08-08T13:26:24;2.63;;;1.13;;
39772;SDS011;25451;51.960;6.250;2023-08-08T13:28:50;2.07;;;1.00;;
39772;SDS011;25451;51.960;6.250;2023-08-08T13:31:15;3.40;;;1.17;;
39772;SDS011;25451;51.960;6.250;2023-08-08T13:33:41;1.33;;;1.00;;
39772;SDS011;25451;51.960;6.250;2023-08-08T13:36:07;2.65;;;1.10;;
39772;SDS011;25451;51.960;6.250;2023-08-08T13:38:32;2.87;;;1.10;;
39772;SDS011;25451;51.960;6.250;2023-08-08T13:40:58;2.33;;;1.00;;
39772;SDS011;25451;51.960;6.250;2023-08-08T13:43:25;2.58;;;1.00;;
39772;SDS011;25451;51.960;6.250;2023-08-08T13:45:50;1.83;;;1.00;;
39772;SDS011;25451;51.960;6.250;2023-08-08T13:48:15;3.30;;;1.10;;
39772;SDS011;25451;51.960;6.250;2023-08-08T13:50:41;3.60;;;1.10;;
39772;SDS011;25451;51.960;6.250;2023-08-08T13:53:06;2.20;;;1.00;;
39772;SDS011;25451;51.960;6.250;2023-08-08T13:55:31;3.77;;;1.00;;
39772;SDS011;25451;51.960;6.250;2023-08-08T13:58:04;1.92;;;1.02;;
39772;SDS011;25451;51.960;6.250;2023-08-08T14:00:29;2.50;;;1.00;;
39772;SDS011;25451;51.960;6.250;2023-08-08T14:02:54;2.90;;;1.10;;
39772;SDS011;25451;51.960;6.250;2023-08-08T14:05:19;2.50;;;1.07;;
39772;SDS011;25451;51.960;6.250;2023-08-08T14:07:45;2.53;;;1.00;;
39772;SDS011;25451;51.960;6.250;2023-08-08T14:10:10;2.73;;;0.90;;
39772;SDS011;25451;51.960;6.250;2023-08-08T14:12:36;2.03;;;0.97;;
39772;SDS011;25451;51.960;6.250;2023-08-08T14:15:01;2.33;;;1.20;;
39772;SDS011;25451;51.960;6.250;2023-08-08T14:17:26;4.60;;;1.20;;
39772;SDS011;25451;51.960;6.250;2023-08-08T14:19:52;2.03;;;1.00;;
39772;SDS011;25451;51.960;6.250;2023-08-08T14:22:17;2.42;;;1.10;;
39772;SDS011;25451;51.960;6.250;2023-08-08T14:24:43;2.23;;;1.10;;
39772;SDS011;25451;51.960;6.250;2023-08-08T14:27:08;3.17;;;1.10;;
39772;SDS011;25451;51.960;6.250;2023-08-08T14:29:34;2.80;;;0.90;;
39772;SDS011;25451;51.960;6.250;2023-08-08T14:31:59;2.83;;;1.10;;
39772;SDS011;25451;51.960;6.250;2023-08-08T14:34:28;2.50;;;1.10;;
39772;SDS011;25451;51.960;6.250;2023-08-08T14:36:55;3.67;;;1.10;;
39772;SDS011;25451;51.960;6.250;2023-08-08T14:39:20;2.10;;;1.10;;
39772;SDS011;25451;51.960;6.250;2023-08-08T14:41:46;1.90;;;1.00;;
39772;SDS011;25451;51.960;6.250;2023-08-08T14:44:11;2.00;;;1.00;;
39772;SDS011;25451;51.960;6.250;2023-08-08T14:46:36;3.93;;;1.00;;
39772;SDS011;25451;51.960;6.250;2023-08-08T14:49:02;3.50;;;1.10;;
39772;SDS011;25451;51.960;6.250;2023-08-08T14:51:29;1.95;;;1.00;;
39772;SDS011;25451;51.960;6.250;2023-08-08T14:53:54;1.80;;;0.90;;
39772;SDS011;25451;51.960;6.250;2023-08-08T14:56:19;2.40;;;0.80;;
39772;SDS011;25451;51.960;6.250;2023-08-08T14:58:45;1.67;;;0.90;;
39772;SDS011;25451;51.960;6.250;2023-08-08T15:01:10;2.30;;;0.90;;
39772;SDS011;25451;51.960;6.250;2023-08-08T15:03:36;3.58;;;1.48;;
39772;SDS011;25451;51.960;6.250;2023-08-08T15:06:01;1.13;;;0.70;;
39772;SDS011;25451;51.960;6.250;2023-08-08T15:08:27;2.13;;;0.80;;
39772;SDS011;25451;51.960;6.250;2023-08-08T15:10:52;2.13;;;0.90;;
39772;SDS011;25451;51.960;6.250;2023-08-08T15:13:17;3.53;;;0.85;;
39772;SDS011;25451;51.960;6.250;2023-08-08T15:15:43;2.65;;;0.90;;
39772;SDS011;25451;51.960;6.250;2023-08-08T15:18:08;2.23;;;0.80;;
39772;SDS011;25451;51.960;6.250;2023-08-08T15:20:33;1.30;;;0.80;;
39772;SDS011;25451;51.960;6.250;2023-08-08T15:22:59;2.37;;;0.80;;
39772;SDS011;25451;51.960;6.250;2023-08-08T15:25:24;1.97;;;0.67;;
39772;SDS011;25451;51.960;6.250;2023-08-08T15:27:49;1.03;;;0.70;;
39772;SDS011;25451;51.960;6.250;2023-08-08T15:30:15;1.67;;;0.80;;
39772;SDS011;25451;51.960;6.250;2023-08-08T15:32:40;3.40;;;0.90;;
39772;SDS011;25451;51.960;6.250;2023-08-08T15:35:05;2.67;;;0.77;;
39772;SDS011;25451;51.960;6.250;2023-08-08T15:37:31;2.07;;;0.97;;